sensor_id;sensor_type;location;lat;lon;timestamp;P1;durP1;ratioP1;P2;durP2;ratioP2
70757;SDS011;59316;52.964;7.102;2024-03-08T00:02:45;56.05;;;20.00;;
70757;SDS011;59316;52.964;7.102;2024-03-08T00:08:07;56.22;;;20.38;;
70757;SDS011;59316;52.964;7.102;2024-03-08T00:13:29;49.83;;;19.55;;
70757;SDS011;59316;52.964;7.102;2024-03-08T00:18:50;62.83;;;19.77;;
70757;SDS011;59316;52.964;7.102;2024-03-08T00:24:12;49.72;;;20.00;;
70757;SDS011;59316;52.964;7.102;2024-03-08T00:29:33;62.05;;;20.25;;
70757;SDS011;59316;52.964;7.102;2024-03-08T00:34:55;64.55;;;20.42;;
70757;SDS011;59316;52.964;7.102;2024-03-08T00:40:17;57.90;;;20.13;;
70757;SDS011;59316;52.964;7.102;2024-03-08T00:45:38;52.17;;;18.30;;
70757;SDS011;59316;52.964;7.102;2024-03-08T00:51:00;55.60;;;18.63;;
70757;SDS011;59316;52.964;7.102;2024-03-08T00:56:22;52.45;;;19.95;;
70757;SDS011;59316;52.964;7.102;2024-03-08T01:01:43;60.72;;;19.00;;
70757;SDS011;59316;52.964;7.102;2024-03-08T01:07:04;56.30;;;20.40;;
70757;SDS011;59316;52.964;7.102;2024-03-08T01:12:26;55.97;;;19.88;;
70757;SDS011;59316;52.964;7.102;2024-03-08T01:17:48;60.95;;;20.23;;
70757;SDS011;59316;52.964;7.102;2024-03-08T01:23:09;58.63;;;20.70;;
70757;SDS011;59316;52.964;7.102;2024-03-08T01:28:31;54.65;;;20.90;;
70757;SDS011;59316;52.964;7.102;2024-03-08T01:33:52;60.45;;;20.25;;
70757;SDS011;59316;52.964;7.102;2024-03-08T01:39:14;67.28;;;21.15;;
70757;SDS011;59316;52.964;7.102;2024-03-08T01:44:35;50.95;;;18.75;;
70757;SDS011;59316;52.964;7.102;2024-03-08T01:49:57;58.92;;;20.95;;
70757;SDS011;59316;52.964;7.102;2024-03-08T01:55:19;62.20;;;21.70;;
70757;SDS011;59316;52.964;7.102;2024-03-08T02:00:42;56.67;;;20.75;;
70757;SDS011;59316;52.964;7.102;2024-03-08T02:06:05;63.20;;;21.33;;
70757;SDS011;59316;52.964;7.102;2024-03-08T02:11:27;54.63;;;20.17;;
70757;SDS011;59316;52.964;7.102;2024-03-08T02:16:49;66.18;;;21.63;;
70757;SDS011;59316;52.964;7.102;2024-03-08T02:22:11;57.88;;;20.25;;
70757;SDS011;59316;52.964;7.102;2024-03-08T02:27:32;60.70;;;20.35;;
70757;SDS011;59316;52.964;7.102;2024-03-08T02:32:53;66.15;;;22.17;;
70757;SDS011;59316;52.964;7.102;2024-03-08T02:38:15;59.85;;;21.48;;
70757;SDS011;59316;52.964;7.102;2024-03-08T02:43:39;64.55;;;20.73;;
70757;SDS011;59316;52.964;7.102;2024-03-08T02:49:00;59.53;;;21.35;;
70757;SDS011;59316;52.964;7.102;2024-03-08T02:54:21;60.65;;;21.05;;
70757;SDS011;59316;52.964;7.102;2024-03-08T02:59:43;59.58;;;20.50;;
70757;SDS011;59316;52.964;7.102;2024-03-08T03:05:05;55.92;;;19.00;;
70757;SDS011;59316;52.964;7.102;2024-03-08T03:10:26;56.38;;;21.05;;
70757;SDS011;59316;52.964;7.102;2024-03-08T03:15:48;54.15;;;19.13;;
70757;SDS011;59316;52.964;7.102;2024-03-08T03:21:09;56.00;;;20.90;;
70757;SDS011;59316;52.964;7.102;2024-03-08T03:26:31;54.45;;;18.92;;
70757;SDS011;59316;52.964;7.102;2024-03-08T03:31:53;51.88;;;20.58;;
70757;SDS011;59316;52.964;7.102;2024-03-08T03:37:14;63.88;;;21.73;;
70757;SDS011;59316;52.964;7.102;2024-03-08T03:42:36;55.92;;;18.35;;
70757;SDS011;59316;52.964;7.102;2024-03-08T03:47:57;47.15;;;18.40;;
70757;SDS011;59316;52.964;7.102;2024-03-08T03:53:19;53.45;;;19.35;;
70757;SDS011;59316;52.964;7.102;2024-03-08T03:58:40;56.58;;;22.25;;
70757;SDS011;59316;52.964;7.102;2024-03-08T04:04:01;59.47;;;20.42;;
70757;SDS011;59316;52.964;7.102;2024-03-08T04:09:23;57.67;;;20.15;;
70757;SDS011;59316;52.964;7.102;2024-03-08T04:14:44;57.90;;;20.40;;
70757;SDS011;59316;52.964;7.102;2024-03-08T04:20:06;49.17;;;17.98;;
70757;SDS011;59316;52.964;7.102;2024-03-08T04:25:27;54.55;;;18.77;;
70757;SDS011;59316;52.964;7.102;2024-03-08T04:30:49;48.92;;;18.08;;
70757;SDS011;59316;52.964;7.102;2024-03-08T04:36:10;48.03;;;17.88;;
70757;SDS011;59316;52.964;7.102;2024-03-08T04:41:31;50.35;;;18.65;;
70757;SDS011;59316;52.964;7.102;2024-03-08T04:46:53;46.95;;;17.65;;
70757;SDS011;59316;52.964;7.102;2024-03-08T04:52:14;51.45;;;18.85;;
70757;SDS011;59316;52.964;7.102;2024-03-08T04:57:36;52.67;;;18.63;;
70757;SDS011;59316;52.964;7.102;2024-03-08T05:02:58;44.40;;;16.92;;
70757;SDS011;59316;52.964;7.102;2024-03-08T05:08:20;49.15;;;18.25;;
70757;SDS011;59316;52.964;7.102;2024-03-08T05:13:41;46.40;;;17.83;;
70757;SDS011;59316;52.964;7.102;2024-03-08T05:19:02;52.60;;;17.88;;
70757;SDS011;59316;52.964;7.102;2024-03-08T05:24:23;47.35;;;17.85;;
70757;SDS011;59316;52.964;7.102;2024-03-08T05:29:45;46.50;;;17.85;;
70757;SDS011;59316;52.964;7.102;2024-03-08T05:35:06;42.65;;;17.80;;
70757;SDS011;59316;52.964;7.102;2024-03-08T05:40:28;45.53;;;18.13;;
70757;SDS011;59316;52.964;7.102;2024-03-08T05:45:50;43.78;;;18.30;;
70757;SDS011;59316;52.964;7.102;2024-03-08T05:51:11;50.92;;;18.08;;
70757;SDS011;59316;52.964;7.102;2024-03-08T05:56:33;51.20;;;19.30;;
70757;SDS011;59316;52.964;7.102;2024-03-08T06:01:54;52.53;;;19.70;;
70757;SDS011;59316;52.964;7.102;2024-03-08T06:07:16;52.70;;;18.80;;
70757;SDS011;59316;52.964;7.102;2024-03-08T06:12:37;47.90;;;17.70;;
70757;SDS011;59316;52.964;7.102;2024-03-08T06:17:58;52.63;;;17.55;;
70757;SDS011;59316;52.964;7.102;2024-03-08T06:23:20;50.35;;;17.40;;
70757;SDS011;59316;52.964;7.102;2024-03-08T06:28:41;50.10;;;19.45;;
70757;SDS011;59316;52.964;7.102;2024-03-08T06:34:02;48.95;;;19.90;;
70757;SDS011;59316;52.964;7.102;2024-03-08T06:39:24;50.63;;;18.17;;
70757;SDS011;59316;52.964;7.102;2024-03-08T06:44:45;45.15;;;18.45;;
70757;SDS011;59316;52.964;7.102;2024-03-08T06:50:07;64.68;;;19.42;;
70757;SDS011;59316;52.964;7.102;2024-03-08T06:55:29;51.05;;;18.13;;
70757;SDS011;59316;52.964;7.102;2024-03-08T07:00:50;50.10;;;19.23;;
70757;SDS011;59316;52.964;7.102;2024-03-08T07:06:12;54.72;;;18.75;;
70757;SDS011;59316;52.964;7.102;2024-03-08T07:11:34;47.70;;;19.08;;
70757;SDS011;59316;52.964;7.102;2024-03-08T07:16:56;43.45;;;16.92;;
70757;SDS011;59316;52.964;7.102;2024-03-08T07:22:19;55.03;;;19.23;;
70757;SDS011;59316;52.964;7.102;2024-03-08T07:27:40;48.10;;;18.90;;
70757;SDS011;59316;52.964;7.102;2024-03-08T07:33:02;48.67;;;19.30;;
70757;SDS011;59316;52.964;7.102;2024-03-08T07:38:25;41.77;;;17.10;;
70757;SDS011;59316;52.964;7.102;2024-03-08T07:43:47;42.65;;;18.42;;
70757;SDS011;59316;52.964;7.102;2024-03-08T07:49:08;45.17;;;18.73;;
70757;SDS011;59316;52.964;7.102;2024-03-08T07:54:30;43.03;;;19.35;;
70757;SDS011;59316;52.964;7.102;2024-03-08T07:59:52;47.28;;;18.52;;
70757;SDS011;59316;52.964;7.102;2024-03-08T08:05:13;41.47;;;17.17;;
70757;SDS011;59316;52.964;7.102;2024-03-08T08:10:36;37.28;;;16.42;;
70757;SDS011;59316;52.964;7.102;2024-03-08T08:15:59;35.00;;;16.65;;
70757;SDS011;59316;52.964;7.102;2024-03-08T08:21:20;35.20;;;15.32;;
70757;SDS011;59316;52.964;7.102;2024-03-08T08:26:43;33.00;;;15.43;;
70757;SDS011;59316;52.964;7.102;2024-03-08T08:32:04;32.00;;;15.48;;
70757;SDS011;59316;52.964;7.102;2024-03-08T08:37:26;33.67;;;15.65;;
70757;SDS011;59316;52.964;7.102;2024-03-08T08:42:47;32.10;;;15.43;;
70757;SDS011;59316;52.964;7.102;2024-03-08T08:48:10;30.95;;;13.98;;
70757;SDS011;59316;52.964;7.102;2024-03-08T08:53:31;34.33;;;15.32;;
70757;SDS011;59316;52.964;7.102;2024-03-08T08:58:53;31.83;;;15.05;;
70757;SDS011;59316;52.964;7.102;2024-03-08T09:04:15;31.42;;;15.25;;
70757;SDS011;59316;52.964;7.102;2024-03-08T09:09:36;29.30;;;14.90;;
70757;SDS011;59316;52.964;7.102;2024-03-08T09:14:58;28.83;;;14.95;;
70757;SDS011;59316;52.964;7.102;2024-03-08T09:20:19;32.15;;;14.93;;
70757;SDS011;59316;52.964;7.102;2024-03-08T09:25:41;32.30;;;16.35;;
70757;SDS011;59316;52.964;7.102;2024-03-08T09:31:04;31.52;;;15.55;;
70757;SDS011;59316;52.964;7.102;2024-03-08T09:36:25;28.10;;;14.63;;
70757;SDS011;59316;52.964;7.102;2024-03-08T09:41:47;29.63;;;15.63;;
70757;SDS011;59316;52.964;7.102;2024-03-08T09:47:08;32.33;;;14.90;;
70757;SDS011;59316;52.964;7.102;2024-03-08T09:52:36;30.05;;;15.60;;
70757;SDS011;59316;52.964;7.102;2024-03-08T09:57:58;30.23;;;15.57;;
70757;SDS011;59316;52.964;7.102;2024-03-08T10:08:44;30.73;;;16.00;;
70757;SDS011;59316;52.964;7.102;2024-03-08T10:14:07;34.00;;;16.02;;
70757;SDS011;59316;52.964;7.102;2024-03-08T10:19:29;33.85;;;15.75;;
70757;SDS011;59316;52.964;7.102;2024-03-08T10:24:51;28.60;;;14.90;;
70757;SDS011;59316;52.964;7.102;2024-03-08T10:30:16;29.92;;;15.98;;
70757;SDS011;59316;52.964;7.102;2024-03-08T10:35:37;30.48;;;16.20;;
70757;SDS011;59316;52.964;7.102;2024-03-08T10:40:59;32.63;;;16.40;;
70757;SDS011;59316;52.964;7.102;2024-03-08T10:46:30;29.27;;;16.15;;
70757;SDS011;59316;52.964;7.102;2024-03-08T10:52:20;31.45;;;16.20;;
70757;SDS011;59316;52.964;7.102;2024-03-08T10:57:42;31.13;;;16.70;;
70757;SDS011;59316;52.964;7.102;2024-03-08T11:03:04;28.38;;;15.88;;
70757;SDS011;59316;52.964;7.102;2024-03-08T11:08:25;29.75;;;17.25;;
70757;SDS011;59316;52.964;7.102;2024-03-08T11:13:47;30.25;;;16.60;;
70757;SDS011;59316;52.964;7.102;2024-03-08T11:24:36;29.42;;;15.48;;
70757;SDS011;59316;52.964;7.102;2024-03-08T11:29:59;28.65;;;16.05;;
70757;SDS011;59316;52.964;7.102;2024-03-08T11:35:32;28.55;;;15.85;;
70757;SDS011;59316;52.964;7.102;2024-03-08T11:40:56;29.58;;;16.50;;
70757;SDS011;59316;52.964;7.102;2024-03-08T11:51:41;29.08;;;15.75;;
70757;SDS011;59316;52.964;7.102;2024-03-08T11:57:03;27.17;;;15.63;;
70757;SDS011;59316;52.964;7.102;2024-03-08T12:02:25;26.40;;;15.45;;
70757;SDS011;59316;52.964;7.102;2024-03-08T12:07:55;28.35;;;16.30;;
70757;SDS011;59316;52.964;7.102;2024-03-08T12:13:18;26.42;;;15.25;;
70757;SDS011;59316;52.964;7.102;2024-03-08T12:18:40;27.58;;;15.52;;
70757;SDS011;59316;52.964;7.102;2024-03-08T12:29:28;26.77;;;15.68;;
70757;SDS011;59316;52.964;7.102;2024-03-08T12:34:53;24.23;;;14.75;;
70757;SDS011;59316;52.964;7.102;2024-03-08T12:40:15;24.55;;;14.80;;
70757;SDS011;59316;52.964;7.102;2024-03-08T12:45:36;25.48;;;14.63;;
70757;SDS011;59316;52.964;7.102;2024-03-08T12:50:57;24.00;;;14.13;;
70757;SDS011;59316;52.964;7.102;2024-03-08T12:56:21;27.15;;;15.13;;
70757;SDS011;59316;52.964;7.102;2024-03-08T13:01:53;22.80;;;13.63;;
70757;SDS011;59316;52.964;7.102;2024-03-08T13:07:15;23.92;;;15.35;;
70757;SDS011;59316;52.964;7.102;2024-03-08T13:12:36;27.35;;;14.00;;
70757;SDS011;59316;52.964;7.102;2024-03-08T13:17:58;21.23;;;13.15;;
70757;SDS011;59316;52.964;7.102;2024-03-08T13:23:19;21.17;;;13.57;;
70757;SDS011;59316;52.964;7.102;2024-03-08T13:28:47;21.50;;;12.93;;
70757;SDS011;59316;52.964;7.102;2024-03-08T13:34:09;20.95;;;12.68;;
70757;SDS011;59316;52.964;7.102;2024-03-08T13:39:31;20.80;;;12.25;;
70757;SDS011;59316;52.964;7.102;2024-03-08T13:44:52;22.75;;;13.27;;
70757;SDS011;59316;52.964;7.102;2024-03-08T13:50:13;23.90;;;13.60;;
70757;SDS011;59316;52.964;7.102;2024-03-08T13:55:35;22.13;;;13.55;;
70757;SDS011;59316;52.964;7.102;2024-03-08T14:00:57;20.92;;;12.35;;
70757;SDS011;59316;52.964;7.102;2024-03-08T14:06:18;22.33;;;13.88;;
70757;SDS011;59316;52.964;7.102;2024-03-08T14:11:41;21.23;;;13.00;;
70757;SDS011;59316;52.964;7.102;2024-03-08T14:17:03;23.70;;;13.02;;
70757;SDS011;59316;52.964;7.102;2024-03-08T14:22:25;25.98;;;13.73;;
70757;SDS011;59316;52.964;7.102;2024-03-08T14:27:47;23.27;;;13.57;;
70757;SDS011;59316;52.964;7.102;2024-03-08T14:33:08;23.42;;;13.50;;
70757;SDS011;59316;52.964;7.102;2024-03-08T14:38:30;24.20;;;12.98;;
70757;SDS011;59316;52.964;7.102;2024-03-08T14:43:52;23.45;;;13.80;;
70757;SDS011;59316;52.964;7.102;2024-03-08T14:49:14;22.75;;;13.43;;
70757;SDS011;59316;52.964;7.102;2024-03-08T14:54:35;24.23;;;13.38;;
70757;SDS011;59316;52.964;7.102;2024-03-08T14:59:57;24.25;;;13.73;;
70757;SDS011;59316;52.964;7.102;2024-03-08T15:05:19;24.88;;;13.48;;
70757;SDS011;59316;52.964;7.102;2024-03-08T15:10:40;21.45;;;12.60;;
70757;SDS011;59316;52.964;7.102;2024-03-08T15:16:02;24.55;;;13.77;;
70757;SDS011;59316;52.964;7.102;2024-03-08T15:21:24;25.83;;;14.35;;
70757;SDS011;59316;52.964;7.102;2024-03-08T15:26:46;22.90;;;13.43;;
70757;SDS011;59316;52.964;7.102;2024-03-08T15:32:11;25.30;;;14.00;;
70757;SDS011;59316;52.964;7.102;2024-03-08T15:37:32;26.60;;;13.63;;
70757;SDS011;59316;52.964;7.102;2024-03-08T15:42:55;25.00;;;13.43;;
70757;SDS011;59316;52.964;7.102;2024-03-08T15:48:19;27.17;;;14.40;;
70757;SDS011;59316;52.964;7.102;2024-03-08T15:53:41;24.98;;;12.68;;
70757;SDS011;59316;52.964;7.102;2024-03-08T15:59:02;25.48;;;13.82;;
70757;SDS011;59316;52.964;7.102;2024-03-08T16:04:24;23.73;;;13.10;;
70757;SDS011;59316;52.964;7.102;2024-03-08T16:09:46;27.20;;;13.38;;
70757;SDS011;59316;52.964;7.102;2024-03-08T16:15:08;24.27;;;13.23;;
70757;SDS011;59316;52.964;7.102;2024-03-08T16:20:29;28.60;;;13.13;;
70757;SDS011;59316;52.964;7.102;2024-03-08T16:25:51;29.73;;;14.35;;
70757;SDS011;59316;52.964;7.102;2024-03-08T16:31:13;28.15;;;14.32;;
70757;SDS011;59316;52.964;7.102;2024-03-08T16:36:34;29.80;;;14.52;;
70757;SDS011;59316;52.964;7.102;2024-03-08T16:41:55;29.13;;;14.73;;
70757;SDS011;59316;52.964;7.102;2024-03-08T16:47:17;29.35;;;14.68;;
70757;SDS011;59316;52.964;7.102;2024-03-08T16:52:39;32.42;;;15.43;;
70757;SDS011;59316;52.964;7.102;2024-03-08T16:58:00;28.98;;;14.38;;
70757;SDS011;59316;52.964;7.102;2024-03-08T17:03:22;28.48;;;13.93;;
70757;SDS011;59316;52.964;7.102;2024-03-08T17:08:43;28.95;;;14.10;;
70757;SDS011;59316;52.964;7.102;2024-03-08T17:14:04;28.20;;;14.20;;
70757;SDS011;59316;52.964;7.102;2024-03-08T17:19:26;31.35;;;14.95;;
70757;SDS011;59316;52.964;7.102;2024-03-08T17:24:48;29.65;;;14.82;;
70757;SDS011;59316;52.964;7.102;2024-03-08T17:30:09;33.17;;;15.65;;
70757;SDS011;59316;52.964;7.102;2024-03-08T17:35:31;34.42;;;15.77;;
70757;SDS011;59316;52.964;7.102;2024-03-08T17:40:53;34.80;;;15.02;;
70757;SDS011;59316;52.964;7.102;2024-03-08T17:46:15;30.95;;;14.40;;
70757;SDS011;59316;52.964;7.102;2024-03-08T17:51:37;32.20;;;15.40;;
70757;SDS011;59316;52.964;7.102;2024-03-08T17:56:59;33.03;;;13.70;;
70757;SDS011;59316;52.964;7.102;2024-03-08T18:02:20;30.88;;;15.68;;
70757;SDS011;59316;52.964;7.102;2024-03-08T18:07:42;28.55;;;13.25;;
70757;SDS011;59316;52.964;7.102;2024-03-08T18:13:05;28.17;;;13.97;;
70757;SDS011;59316;52.964;7.102;2024-03-08T18:18:26;36.83;;;14.88;;
70757;SDS011;59316;52.964;7.102;2024-03-08T18:23:49;28.58;;;14.43;;
70757;SDS011;59316;52.964;7.102;2024-03-08T18:29:10;29.38;;;14.45;;
70757;SDS011;59316;52.964;7.102;2024-03-08T18:34:31;28.13;;;14.27;;
70757;SDS011;59316;52.964;7.102;2024-03-08T18:39:53;30.33;;;13.70;;
70757;SDS011;59316;52.964;7.102;2024-03-08T18:45:15;31.10;;;14.57;;
70757;SDS011;59316;52.964;7.102;2024-03-08T18:50:39;29.20;;;14.98;;
70757;SDS011;59316;52.964;7.102;2024-03-08T18:56:00;27.27;;;14.20;;
70757;SDS011;59316;52.964;7.102;2024-03-08T19:01:22;30.70;;;13.55;;
70757;SDS011;59316;52.964;7.102;2024-03-08T19:06:44;33.75;;;14.90;;
70757;SDS011;59316;52.964;7.102;2024-03-08T19:12:06;29.33;;;13.18;;
70757;SDS011;59316;52.964;7.102;2024-03-08T19:17:29;28.63;;;14.20;;
70757;SDS011;59316;52.964;7.102;2024-03-08T19:22:50;30.45;;;14.27;;
70757;SDS011;59316;52.964;7.102;2024-03-08T19:28:14;28.17;;;13.80;;
70757;SDS011;59316;52.964;7.102;2024-03-08T19:33:35;29.15;;;13.48;;
70757;SDS011;59316;52.964;7.102;2024-03-08T19:38:57;25.88;;;13.20;;
70757;SDS011;59316;52.964;7.102;2024-03-08T19:44:19;29.88;;;13.00;;
70757;SDS011;59316;52.964;7.102;2024-03-08T19:49:40;27.27;;;12.75;;
70757;SDS011;59316;52.964;7.102;2024-03-08T19:55:03;25.52;;;12.38;;
70757;SDS011;59316;52.964;7.102;2024-03-08T20:00:25;29.92;;;13.10;;
70757;SDS011;59316;52.964;7.102;2024-03-08T20:05:48;28.55;;;12.35;;
70757;SDS011;59316;52.964;7.102;2024-03-08T20:11:10;27.58;;;13.52;;
70757;SDS011;59316;52.964;7.102;2024-03-08T20:16:32;28.27;;;12.13;;
70757;SDS011;59316;52.964;7.102;2024-03-08T20:21:53;28.80;;;12.73;;
70757;SDS011;59316;52.964;7.102;2024-03-08T20:27:15;26.42;;;12.90;;
70757;SDS011;59316;52.964;7.102;2024-03-08T20:32:37;25.02;;;12.38;;
70757;SDS011;59316;52.964;7.102;2024-03-08T20:37:59;26.45;;;12.48;;
70757;SDS011;59316;52.964;7.102;2024-03-08T20:48:44;27.30;;;12.82;;
70757;SDS011;59316;52.964;7.102;2024-03-08T20:54:07;29.15;;;12.93;;
70757;SDS011;59316;52.964;7.102;2024-03-08T20:59:29;30.42;;;13.15;;
70757;SDS011;59316;52.964;7.102;2024-03-08T21:04:50;30.58;;;12.73;;
70757;SDS011;59316;52.964;7.102;2024-03-08T21:10:12;29.95;;;13.98;;
70757;SDS011;59316;52.964;7.102;2024-03-08T21:15:33;28.38;;;13.95;;
70757;SDS011;59316;52.964;7.102;2024-03-08T21:20:55;29.77;;;14.15;;
70757;SDS011;59316;52.964;7.102;2024-03-08T21:26:23;28.98;;;14.20;;
70757;SDS011;59316;52.964;7.102;2024-03-08T21:31:52;32.22;;;14.15;;
70757;SDS011;59316;52.964;7.102;2024-03-08T21:37:13;31.08;;;14.27;;
70757;SDS011;59316;52.964;7.102;2024-03-08T21:42:39;31.27;;;13.88;;
70757;SDS011;59316;52.964;7.102;2024-03-08T21:48:00;32.90;;;14.45;;
70757;SDS011;59316;52.964;7.102;2024-03-08T21:53:24;34.78;;;14.93;;
70757;SDS011;59316;52.964;7.102;2024-03-08T21:58:55;30.48;;;13.50;;
70757;SDS011;59316;52.964;7.102;2024-03-08T22:04:17;31.02;;;13.13;;
70757;SDS011;59316;52.964;7.102;2024-03-08T22:09:39;33.08;;;13.65;;
70757;SDS011;59316;52.964;7.102;2024-03-08T22:15:00;31.02;;;14.02;;
70757;SDS011;59316;52.964;7.102;2024-03-08T22:20:21;33.05;;;13.80;;
70757;SDS011;59316;52.964;7.102;2024-03-08T22:25:43;29.30;;;13.65;;
70757;SDS011;59316;52.964;7.102;2024-03-08T22:31:05;32.20;;;15.18;;
70757;SDS011;59316;52.964;7.102;2024-03-08T22:36:26;28.88;;;13.23;;
70757;SDS011;59316;52.964;7.102;2024-03-08T22:41:48;28.70;;;12.73;;
70757;SDS011;59316;52.964;7.102;2024-03-08T22:47:09;30.55;;;12.73;;
70757;SDS011;59316;52.964;7.102;2024-03-08T22:52:31;30.02;;;13.15;;
70757;SDS011;59316;52.964;7.102;2024-03-08T22:57:53;28.77;;;11.98;;
70757;SDS011;59316;52.964;7.102;2024-03-08T23:03:14;31.60;;;13.38;;
70757;SDS011;59316;52.964;7.102;2024-03-08T23:08:36;28.17;;;12.40;;
70757;SDS011;59316;52.964;7.102;2024-03-08T23:19:21;24.30;;;11.65;;
70757;SDS011;59316;52.964;7.102;2024-03-08T23:24:43;28.70;;;12.60;;
70757;SDS011;59316;52.964;7.102;2024-03-08T23:30:04;27.17;;;12.20;;
70757;SDS011;59316;52.964;7.102;2024-03-08T23:35:27;27.23;;;12.98;;
70757;SDS011;59316;52.964;7.102;2024-03-08T23:40:48;28.35;;;13.02;;
70757;SDS011;59316;52.964;7.102;2024-03-08T23:46:10;29.77;;;13.38;;
70757;SDS011;59316;52.964;7.102;2024-03-08T23:51:32;29.67;;;13.63;;
70757;SDS011;59316;52.964;7.102;2024-03-08T23:56:53;28.58;;;12.82;;
